sensor_id;sensor_type;location;lat;lon;timestamp;pressure;altitude;pressure_sealevel;temperature;humidity
68822;BME280;55834;50.870;4.606;2024-02-21T00:01:17;101686.44;;;8.87;56.40
68822;BME280;55834;50.870;4.606;2024-02-21T00:03:42;101687.31;;;8.88;56.25
68822;BME280;55834;50.870;4.606;2024-02-21T00:06:08;101677.59;;;8.94;55.90
68822;BME280;55834;50.870;4.606;2024-02-21T00:08:33;101674.19;;;8.83;55.83
68822;BME280;55834;50.870;4.606;2024-02-21T00:10:58;101676.16;;;8.36;56.18
68822;BME280;55834;50.870;4.606;2024-02-21T00:13:24;101681.31;;;8.63;57.64
68822;BME280;55834;50.870;4.606;2024-02-21T00:15:49;101671.56;;;8.78;56.98
68822;BME280;55834;50.870;4.606;2024-02-21T00:18:15;101676.19;;;8.33;56.96
68822;BME280;55834;50.870;4.606;2024-02-21T00:20:40;101658.50;;;8.63;57.39
68822;BME280;55834;50.870;4.606;2024-02-21T00:23:05;101659.31;;;8.73;57.12
68822;BME280;55834;50.870;4.606;2024-02-21T00:25:31;101669.13;;;8.46;57.05
68822;BME280;55834;50.870;4.606;2024-02-21T00:27:56;101652.38;;;8.59;57.34
68822;BME280;55834;50.870;4.606;2024-02-21T00:30:21;101651.59;;;8.39;57.90
68822;BME280;55834;50.870;4.606;2024-02-21T00:32:47;101652.41;;;8.55;58.56
68822;BME280;55834;50.870;4.606;2024-02-21T00:35:14;101654.03;;;8.79;57.89
68822;BME280;55834;50.870;4.606;2024-02-21T00:37:39;101646.13;;;8.79;56.91
68822;BME280;55834;50.870;4.606;2024-02-21T00:40:05;101634.56;;;8.97;56.90
68822;BME280;55834;50.870;4.606;2024-02-21T00:42:31;101639.91;;;8.89;55.96
68822;BME280;55834;50.870;4.606;2024-02-21T00:44:56;101647.91;;;8.74;56.97
68822;BME280;55834;50.870;4.606;2024-02-21T00:47:21;101640.06;;;8.66;56.88
68822;BME280;55834;50.870;4.606;2024-02-21T00:49:47;101626.06;;;8.61;57.49
68822;BME280;55834;50.870;4.606;2024-02-21T00:52:12;101616.34;;;8.72;56.78
68822;BME280;55834;50.870;4.606;2024-02-21T00:54:37;101619.88;;;8.62;56.65
68822;BME280;55834;50.870;4.606;2024-02-21T00:57:03;101621.75;;;8.46;57.17
68822;BME280;55834;50.870;4.606;2024-02-21T00:59:28;101612.16;;;8.38;57.40
68822;BME280;55834;50.870;4.606;2024-02-21T01:01:54;101605.91;;;8.52;58.08
68822;BME280;55834;50.870;4.606;2024-02-21T01:04:19;101609.66;;;7.93;57.77
68822;BME280;55834;50.870;4.606;2024-02-21T01:06:44;101608.75;;;8.16;58.86
68822;BME280;55834;50.870;4.606;2024-02-21T01:09:10;101607.88;;;8.17;58.85
68822;BME280;55834;50.870;4.606;2024-02-21T01:11:36;101600.81;;;8.23;58.60
68822;BME280;55834;50.870;4.606;2024-02-21T01:14:02;101602.63;;;8.12;58.51
68822;BME280;55834;50.870;4.606;2024-02-21T01:16:27;101598.28;;;7.94;59.82
68822;BME280;55834;50.870;4.606;2024-02-21T01:18:53;101586.00;;;7.93;59.43
68822;BME280;55834;50.870;4.606;2024-02-21T01:21:18;101595.66;;;7.94;59.06
68822;BME280;55834;50.870;4.606;2024-02-21T01:23:43;101586.03;;;7.88;58.70
68822;BME280;55834;50.870;4.606;2024-02-21T01:26:09;101593.09;;;7.77;58.82
68822;BME280;55834;50.870;4.606;2024-02-21T01:28:38;101592.09;;;8.04;59.49
68822;BME280;55834;50.870;4.606;2024-02-21T01:31:03;101592.13;;;7.95;58.59
68822;BME280;55834;50.870;4.606;2024-02-21T01:33:29;101590.44;;;7.83;58.52
68822;BME280;55834;50.870;4.606;2024-02-21T01:36:00;101577.19;;;8.17;58.42
68822;BME280;55834;50.870;4.606;2024-02-21T01:38:26;101570.19;;;8.11;58.31
68822;BME280;55834;50.870;4.606;2024-02-21T01:40:51;101562.16;;;8.33;57.78
68822;BME280;55834;50.870;4.606;2024-02-21T01:43:18;101554.19;;;8.47;57.02
68822;BME280;55834;50.870;4.606;2024-02-21T01:45:52;101554.47;;;7.87;57.44
68822;BME280;55834;50.870;4.606;2024-02-21T01:48:19;101545.69;;;7.97;58.92
68822;BME280;55834;50.870;4.606;2024-02-21T01:50:53;101538.72;;;7.85;58.94
68822;BME280;55834;50.870;4.606;2024-02-21T01:53:30;101536.03;;;7.93;58.46
68822;BME280;55834;50.870;4.606;2024-02-21T01:55:56;101539.63;;;7.80;59.11
68822;BME280;55834;50.870;4.606;2024-02-21T01:58:21;101526.47;;;7.75;59.56
68822;BME280;55834;50.870;4.606;2024-02-21T02:00:47;101537.06;;;7.52;59.73
68822;BME280;55834;50.870;4.606;2024-02-21T02:03:13;101531.84;;;7.51;60.39
68822;BME280;55834;50.870;4.606;2024-02-21T02:05:49;101530.16;;;7.00;61.04
68822;BME280;55834;50.870;4.606;2024-02-21T02:08:16;101524.00;;;7.37;60.44
68822;BME280;55834;50.870;4.606;2024-02-21T02:10:42;101530.13;;;7.42;59.89
68822;BME280;55834;50.870;4.606;2024-02-21T02:13:08;101533.56;;;7.59;59.83
68822;BME280;55834;50.870;4.606;2024-02-21T02:15:41;101522.22;;;7.42;59.77
68822;BME280;55834;50.870;4.606;2024-02-21T02:18:06;101518.63;;;7.74;59.85
68822;BME280;55834;50.870;4.606;2024-02-21T02:20:32;101512.41;;;7.84;58.60
68822;BME280;55834;50.870;4.606;2024-02-21T02:22:59;101524.00;;;7.41;59.88
68822;BME280;55834;50.870;4.606;2024-02-21T02:25:26;101522.09;;;7.73;60.39
68822;BME280;55834;50.870;4.606;2024-02-21T02:27:51;101531.84;;;7.46;59.62
68822;BME280;55834;50.870;4.606;2024-02-21T02:30:17;101534.50;;;7.40;59.49
68822;BME280;55834;50.870;4.606;2024-02-21T02:32:45;101529.09;;;7.80;59.62
68822;BME280;55834;50.870;4.606;2024-02-21T02:35:14;101523.00;;;7.73;58.75
68822;BME280;55834;50.870;4.606;2024-02-21T02:37:39;101509.84;;;7.70;59.68
68822;BME280;55834;50.870;4.606;2024-02-21T02:40:06;101512.63;;;7.32;60.54
68822;BME280;55834;50.870;4.606;2024-02-21T02:42:32;101508.13;;;7.69;59.95
68822;BME280;55834;50.870;4.606;2024-02-21T02:44:57;101500.13;;;7.94;58.89
68822;BME280;55834;50.870;4.606;2024-02-21T02:47:23;101504.59;;;7.75;58.87
68822;BME280;55834;50.870;4.606;2024-02-21T02:49:48;101506.19;;;8.02;59.21
68822;BME280;55834;50.870;4.606;2024-02-21T02:52:16;101496.69;;;7.78;58.44
68822;BME280;55834;50.870;4.606;2024-02-21T02:54:42;101507.94;;;8.12;59.24
68822;BME280;55834;50.870;4.606;2024-02-21T02:57:07;101506.97;;;8.22;58.08
68822;BME280;55834;50.870;4.606;2024-02-21T02:59:33;101498.38;;;7.94;57.81
68822;BME280;55834;50.870;4.606;2024-02-21T03:01:58;101494.72;;;8.21;58.62
68822;BME280;55834;50.870;4.606;2024-02-21T03:04:24;101484.16;;;8.27;58.41
68822;BME280;55834;50.870;4.606;2024-02-21T03:06:49;101474.63;;;8.09;57.71
68822;BME280;55834;50.870;4.606;2024-02-21T03:09:16;101471.03;;;8.26;57.65
68822;BME280;55834;50.870;4.606;2024-02-21T03:11:42;101466.50;;;8.42;57.42
68822;BME280;55834;50.870;4.606;2024-02-21T03:14:09;101462.34;;;8.10;58.35
68822;BME280;55834;50.870;4.606;2024-02-21T03:16:34;101451.75;;;8.24;57.84
68822;BME280;55834;50.870;4.606;2024-02-21T03:19:00;101446.56;;;8.14;57.12
68822;BME280;55834;50.870;4.606;2024-02-21T03:21:25;101447.44;;;8.04;58.08
68822;BME280;55834;50.870;4.606;2024-02-21T03:23:50;101439.66;;;7.92;57.82
68822;BME280;55834;50.870;4.606;2024-02-21T03:26:16;101443.16;;;7.91;58.16
68822;BME280;55834;50.870;4.606;2024-02-21T03:28:43;101440.38;;;8.20;58.53
68822;BME280;55834;50.870;4.606;2024-02-21T03:31:11;101438.88;;;7.75;58.42
68822;BME280;55834;50.870;4.606;2024-02-21T03:33:37;101433.59;;;7.79;58.51
68822;BME280;55834;50.870;4.606;2024-02-21T03:36:03;101425.78;;;7.65;58.55
68822;BME280;55834;50.870;4.606;2024-02-21T03:38:29;101420.63;;;7.44;59.98
68822;BME280;55834;50.870;4.606;2024-02-21T03:40:54;101417.03;;;7.65;59.00
68822;BME280;55834;50.870;4.606;2024-02-21T03:43:19;101424.06;;;7.60;59.27
68822;BME280;55834;50.870;4.606;2024-02-21T03:45:45;101413.34;;;7.92;59.14
68822;BME280;55834;50.870;4.606;2024-02-21T03:48:10;101414.97;;;8.13;58.39
68822;BME280;55834;50.870;4.606;2024-02-21T03:50:35;101405.41;;;8.00;58.23
68822;BME280;55834;50.870;4.606;2024-02-21T03:53:01;101405.66;;;7.63;58.56
68822;BME280;55834;50.870;4.606;2024-02-21T03:55:26;101401.38;;;7.37;60.87
68822;BME280;55834;50.870;4.606;2024-02-21T03:57:51;101402.22;;;7.53;60.03
68822;BME280;55834;50.870;4.606;2024-02-21T04:00:17;101412.84;;;7.27;59.88
68822;BME280;55834;50.870;4.606;2024-02-21T04:02:43;101412.56;;;7.78;59.23
68822;BME280;55834;50.870;4.606;2024-02-21T04:05:08;101407.28;;;7.85;58.50
68822;BME280;55834;50.870;4.606;2024-02-21T04:07:37;101408.19;;;7.80;58.92
68822;BME280;55834;50.870;4.606;2024-02-21T04:10:03;101407.28;;;7.82;58.42
68822;BME280;55834;50.870;4.606;2024-02-21T04:12:28;101407.31;;;7.75;58.59
68822;BME280;55834;50.870;4.606;2024-02-21T04:14:53;101415.16;;;7.84;58.41
68822;BME280;55834;50.870;4.606;2024-02-21T04:17:19;101403.94;;;7.53;58.99
68822;BME280;55834;50.870;4.606;2024-02-21T04:19:44;101405.66;;;7.63;58.93
68822;BME280;55834;50.870;4.606;2024-02-21T04:22:09;101405.63;;;7.61;59.04
68822;BME280;55834;50.870;4.606;2024-02-21T04:24:35;101411.69;;;7.80;59.16
68822;BME280;55834;50.870;4.606;2024-02-21T04:27:00;101408.09;;;7.92;57.99
68822;BME280;55834;50.870;4.606;2024-02-21T04:29:26;101405.72;;;7.48;58.13
68822;BME280;55834;50.870;4.606;2024-02-21T04:31:53;101405.56;;;7.80;58.79
68822;BME280;55834;50.870;4.606;2024-02-21T04:34:18;101393.47;;;7.48;58.65
68822;BME280;55834;50.870;4.606;2024-02-21T04:36:43;101394.28;;;7.59;59.33
68822;BME280;55834;50.870;4.606;2024-02-21T04:39:09;101387.25;;;7.58;59.99
68822;BME280;55834;50.870;4.606;2024-02-21T04:41:34;101388.13;;;7.65;60.05
68822;BME280;55834;50.870;4.606;2024-02-21T04:43:59;101387.88;;;7.99;59.07
68822;BME280;55834;50.870;4.606;2024-02-21T04:46:25;101387.00;;;8.01;58.34
68822;BME280;55834;50.870;4.606;2024-02-21T04:48:50;101380.44;;;7.25;58.92
68822;BME280;55834;50.870;4.606;2024-02-21T04:51:15;101374.09;;;7.61;59.41
68822;BME280;55834;50.870;4.606;2024-02-21T04:53:41;101382.03;;;7.57;58.89
68822;BME280;55834;50.870;4.606;2024-02-21T04:56:06;101381.03;;;7.75;58.72
68822;BME280;55834;50.870;4.606;2024-02-21T04:58:32;101374.00;;;7.80;59.41
68822;BME280;55834;50.870;4.606;2024-02-21T05:00:57;101362.44;;;8.04;58.50
68822;BME280;55834;50.870;4.606;2024-02-21T05:03:23;101354.81;;;7.65;58.68
68822;BME280;55834;50.870;4.606;2024-02-21T05:05:48;101355.72;;;7.64;58.49
68822;BME280;55834;50.870;4.606;2024-02-21T05:08:14;101359.16;;;7.71;58.84
68822;BME280;55834;50.870;4.606;2024-02-21T05:10:39;101359.34;;;7.40;60.05
68822;BME280;55834;50.870;4.606;2024-02-21T05:13:04;101344.22;;;7.79;59.27
68822;BME280;55834;50.870;4.606;2024-02-21T05:15:30;101324.25;;;7.52;59.03
68822;BME280;55834;50.870;4.606;2024-02-21T05:17:56;101329.31;;;7.80;59.81
68822;BME280;55834;50.870;4.606;2024-02-21T05:20:21;101316.03;;;7.97;58.38
68822;BME280;55834;50.870;4.606;2024-02-21T05:22:46;101314.31;;;7.92;58.53
68822;BME280;55834;50.870;4.606;2024-02-21T05:25:12;101312.69;;;7.79;58.21
68822;BME280;55834;50.870;4.606;2024-02-21T05:27:37;101309.34;;;7.54;59.31
68822;BME280;55834;50.870;4.606;2024-02-21T05:30:04;101304.22;;;7.30;60.53
68822;BME280;55834;50.870;4.606;2024-02-21T05:32:31;101301.59;;;7.34;59.37
68822;BME280;55834;50.870;4.606;2024-02-21T05:34:57;101290.25;;;7.23;60.03
68822;BME280;55834;50.870;4.606;2024-02-21T05:37:23;101289.25;;;7.50;59.75
68822;BME280;55834;50.870;4.606;2024-02-21T05:39:48;101281.41;;;7.39;59.61
68822;BME280;55834;50.870;4.606;2024-02-21T05:42:14;101287.59;;;7.34;59.43
68822;BME280;55834;50.870;4.606;2024-02-21T05:44:39;101284.25;;;7.07;59.93
68822;BME280;55834;50.870;4.606;2024-02-21T05:47:04;101284.09;;;7.30;60.22
68822;BME280;55834;50.870;4.606;2024-02-21T05:49:35;101277.78;;;7.59;59.70
68822;BME280;55834;50.870;4.606;2024-02-21T05:52:00;101276.78;;;7.77;58.83
68822;BME280;55834;50.870;4.606;2024-02-21T05:54:25;101274.97;;;7.85;58.13
68822;BME280;55834;50.870;4.606;2024-02-21T05:56:51;101272.66;;;7.42;58.85
68822;BME280;55834;50.870;4.606;2024-02-21T05:59:17;101274.44;;;7.34;60.14
68822;BME280;55834;50.870;4.606;2024-02-21T06:01:42;101269.78;;;7.73;59.93
68822;BME280;55834;50.870;4.606;2024-02-21T06:04:08;101270.00;;;7.43;59.32
68822;BME280;55834;50.870;4.606;2024-02-21T06:06:33;101258.56;;;7.54;60.12
68822;BME280;55834;50.870;4.606;2024-02-21T06:08:59;101257.06;;;7.11;60.53
68822;BME280;55834;50.870;4.606;2024-02-21T06:11:25;101252.53;;;7.35;59.51
68822;BME280;55834;50.870;4.606;2024-02-21T06:13:50;101243.72;;;7.45;59.20
68822;BME280;55834;50.870;4.606;2024-02-21T06:16:16;101238.66;;;7.19;59.78
68822;BME280;55834;50.870;4.606;2024-02-21T06:18:41;101234.31;;;7.12;60.28
68822;BME280;55834;50.870;4.606;2024-02-21T06:21:06;101233.00;;;7.71;59.64
68822;BME280;55834;50.870;4.606;2024-02-21T06:23:32;101229.38;;;7.86;58.93
68822;BME280;55834;50.870;4.606;2024-02-21T06:25:57;101239.44;;;7.33;59.31
68822;BME280;55834;50.870;4.606;2024-02-21T06:28:23;101234.72;;;7.77;59.19
68822;BME280;55834;50.870;4.606;2024-02-21T06:30:48;101242.81;;;7.51;59.02
68822;BME280;55834;50.870;4.606;2024-02-21T06:33:13;101231.16;;;7.81;58.39
68822;BME280;55834;50.870;4.606;2024-02-21T06:35:39;101229.28;;;7.95;57.69
68822;BME280;55834;50.870;4.606;2024-02-21T06:38:06;101230.88;;;8.13;57.62
68822;BME280;55834;50.870;4.606;2024-02-21T06:40:32;101236.03;;;8.22;56.90
68822;BME280;55834;50.870;4.606;2024-02-21T06:43:03;101234.59;;;7.89;57.12
68822;BME280;55834;50.870;4.606;2024-02-21T06:45:28;101235.38;;;7.99;58.49
68822;BME280;55834;50.870;4.606;2024-02-21T06:47:54;101243.59;;;7.62;58.43
68822;BME280;55834;50.870;4.606;2024-02-21T06:50:19;101245.47;;;7.48;59.21
68822;BME280;55834;50.870;4.606;2024-02-21T06:52:44;101242.06;;;7.29;60.50
68822;BME280;55834;50.870;4.606;2024-02-21T06:55:10;101235.59;;;7.73;60.38
68822;BME280;55834;50.870;4.606;2024-02-21T06:57:35;101239.63;;;7.01;61.78
68822;BME280;55834;50.870;4.606;2024-02-21T07:00:00;101231.38;;;7.56;61.30
68822;BME280;55834;50.870;4.606;2024-02-21T07:02:26;101224.16;;;7.80;61.18
68822;BME280;55834;50.870;4.606;2024-02-21T07:04:51;101226.06;;;7.61;60.84
68822;BME280;55834;50.870;4.606;2024-02-21T07:07:16;101226.09;;;7.59;61.53
68822;BME280;55834;50.870;4.606;2024-02-21T07:09:42;101233.63;;;7.99;61.58
68822;BME280;55834;50.870;4.606;2024-02-21T07:12:07;101219.59;;;8.00;60.85
68822;BME280;55834;50.870;4.606;2024-02-21T07:14:33;101227.47;;;8.00;60.97
68822;BME280;55834;50.870;4.606;2024-02-21T07:16:58;101229.41;;;7.78;61.56
68822;BME280;55834;50.870;4.606;2024-02-21T07:19:23;101220.00;;;7.54;62.04
68822;BME280;55834;50.870;4.606;2024-02-21T07:21:49;101220.19;;;7.27;62.13
68822;BME280;55834;50.870;4.606;2024-02-21T07:24:14;101216.63;;;7.35;63.11
68822;BME280;55834;50.870;4.606;2024-02-21T07:26:43;101207.78;;;7.49;62.65
68822;BME280;55834;50.870;4.606;2024-02-21T07:29:08;101220.31;;;7.13;63.35
68822;BME280;55834;50.870;4.606;2024-02-21T07:31:41;101213.06;;;7.47;63.96
68822;BME280;55834;50.870;4.606;2024-02-21T07:34:07;101212.69;;;6.56;64.37
68822;BME280;55834;50.870;4.606;2024-02-21T07:36:32;101209.19;;;6.63;65.66
68822;BME280;55834;50.870;4.606;2024-02-21T07:38:57;101207.38;;;6.77;65.87
68822;BME280;55834;50.870;4.606;2024-02-21T07:41:23;101200.22;;;7.06;65.13
68822;BME280;55834;50.870;4.606;2024-02-21T07:43:48;101195.91;;;6.98;64.30
68822;BME280;55834;50.870;4.606;2024-02-21T07:46:14;101189.63;;;7.15;64.50
68822;BME280;55834;50.870;4.606;2024-02-21T07:48:39;101173.88;;;7.15;64.47
68822;BME280;55834;50.870;4.606;2024-02-21T07:51:05;101174.81;;;7.11;63.43
68822;BME280;55834;50.870;4.606;2024-02-21T07:53:30;101160.34;;;7.65;64.04
68822;BME280;55834;50.870;4.606;2024-02-21T07:55:56;101169.53;;;7.14;63.16
68822;BME280;55834;50.870;4.606;2024-02-21T07:58:21;101162.59;;;7.04;63.94
68822;BME280;55834;50.870;4.606;2024-02-21T08:00:46;101150.84;;;7.49;63.33
68822;BME280;55834;50.870;4.606;2024-02-21T08:03:12;101143.59;;;7.76;62.56
68822;BME280;55834;50.870;4.606;2024-02-21T08:05:37;101136.53;;;7.82;61.18
68822;BME280;55834;50.870;4.606;2024-02-21T08:08:03;101125.91;;;7.90;61.79
68822;BME280;55834;50.870;4.606;2024-02-21T08:10:29;101130.22;;;7.05;61.71
68822;BME280;55834;50.870;4.606;2024-02-21T08:12:54;101119.44;;;7.37;62.73
68822;BME280;55834;50.870;4.606;2024-02-21T08:15:20;101116.03;;;7.27;61.99
68822;BME280;55834;50.870;4.606;2024-02-21T08:17:49;101120.84;;;6.70;63.07
68822;BME280;55834;50.870;4.606;2024-02-21T08:20:14;101112.88;;;6.77;62.91
68822;BME280;55834;50.870;4.606;2024-02-21T08:22:40;101094.94;;;7.35;63.18
68822;BME280;55834;50.870;4.606;2024-02-21T08:25:06;101100.41;;;7.10;62.59
68822;BME280;55834;50.870;4.606;2024-02-21T08:27:31;101097.66;;;7.27;62.05
68822;BME280;55834;50.870;4.606;2024-02-21T08:29:56;101089.28;;;7.75;61.88
68822;BME280;55834;50.870;4.606;2024-02-21T08:32:22;101096.88;;;7.16;62.00
68822;BME280;55834;50.870;4.606;2024-02-21T08:34:47;101089.00;;;7.16;62.34
68822;BME280;55834;50.870;4.606;2024-02-21T08:37:12;101089.19;;;6.93;63.38
68822;BME280;55834;50.870;4.606;2024-02-21T08:39:38;101081.75;;;7.41;62.60
68822;BME280;55834;50.870;4.606;2024-02-21T08:42:04;101092.69;;;6.90;61.37
68822;BME280;55834;50.870;4.606;2024-02-21T08:44:30;101077.84;;;6.88;62.48
68822;BME280;55834;50.870;4.606;2024-02-21T08:46:55;101074.06;;;7.18;62.67
68822;BME280;55834;50.870;4.606;2024-02-21T08:49:20;101068.31;;;6.74;62.42
68822;BME280;55834;50.870;4.606;2024-02-21T08:51:46;101060.44;;;6.76;62.69
68822;BME280;55834;50.870;4.606;2024-02-21T08:54:12;101060.22;;;7.02;61.31
68822;BME280;55834;50.870;4.606;2024-02-21T08:56:37;101062.25;;;6.69;62.34
68822;BME280;55834;50.870;4.606;2024-02-21T08:59:02;101050.63;;;7.01;61.70
68822;BME280;55834;50.870;4.606;2024-02-21T09:01:28;101041.59;;;7.28;60.98
68822;BME280;55834;50.870;4.606;2024-02-21T09:03:54;101040.59;;;7.41;59.89
68822;BME280;55834;50.870;4.606;2024-02-21T09:06:21;101036.25;;;7.37;59.80
68822;BME280;55834;50.870;4.606;2024-02-21T09:08:47;101027.22;;;6.73;60.76
68822;BME280;55834;50.870;4.606;2024-02-21T09:11:12;101036.13;;;6.46;62.55
68822;BME280;55834;50.870;4.606;2024-02-21T09:13:37;101011.97;;;7.14;61.03
68822;BME280;55834;50.870;4.606;2024-02-21T09:16:03;100998.66;;;7.34;59.96
68822;BME280;55834;50.870;4.606;2024-02-21T09:18:29;101010.59;;;7.62;59.18
68822;BME280;55834;50.870;4.606;2024-02-21T09:20:55;101002.94;;;7.41;60.05
68822;BME280;55834;50.870;4.606;2024-02-21T09:23:20;100998.31;;;7.63;59.41
68822;BME280;55834;50.870;4.606;2024-02-21T09:25:45;100996.81;;;7.42;59.28
68822;BME280;55834;50.870;4.606;2024-02-21T09:28:11;100993.31;;;7.40;60.32
68822;BME280;55834;50.870;4.606;2024-02-21T09:30:38;100983.06;;;7.89;59.19
68822;BME280;55834;50.870;4.606;2024-02-21T09:33:03;100992.91;;;7.77;58.72
68822;BME280;55834;50.870;4.606;2024-02-21T09:35:30;100980.28;;;7.31;59.78
68822;BME280;55834;50.870;4.606;2024-02-21T09:37:55;100969.84;;;7.26;59.92
68822;BME280;55834;50.870;4.606;2024-02-21T09:40:21;100958.78;;;6.96;61.58
68822;BME280;55834;50.870;4.606;2024-02-21T09:42:47;100942.59;;;7.36;60.14
68822;BME280;55834;50.870;4.606;2024-02-21T09:45:23;100927.50;;;7.52;59.74
68822;BME280;55834;50.870;4.606;2024-02-21T09:50:34;100912.13;;;7.88;59.00
68822;BME280;55834;50.870;4.606;2024-02-21T09:53:01;100908.69;;;7.83;58.15
68822;BME280;55834;50.870;4.606;2024-02-21T09:55:29;100907.16;;;6.94;60.78
68822;BME280;55834;50.870;4.606;2024-02-21T09:57:58;100901.50;;;7.29;60.62
68822;BME280;55834;50.870;4.606;2024-02-21T10:00:24;100896.13;;;7.41;59.58
68822;BME280;55834;50.870;4.606;2024-02-21T10:02:49;100899.41;;;7.59;60.29
68822;BME280;55834;50.870;4.606;2024-02-21T10:05:15;100892.09;;;7.79;59.82
68822;BME280;55834;50.870;4.606;2024-02-21T10:07:41;100888.03;;;7.55;59.36
68822;BME280;55834;50.870;4.606;2024-02-21T10:10:07;100893.00;;;7.77;59.46
68822;BME280;55834;50.870;4.606;2024-02-21T10:12:32;100876.69;;;8.15;58.42
68822;BME280;55834;50.870;4.606;2024-02-21T10:15:02;100871.03;;;7.82;58.52
68822;BME280;55834;50.870;4.606;2024-02-21T10:17:28;100856.06;;;7.86;58.98
68822;BME280;55834;50.870;4.606;2024-02-21T10:19:53;100865.41;;;8.08;58.28
68822;BME280;55834;50.870;4.606;2024-02-21T10:22:18;100851.63;;;7.89;59.15
68822;BME280;55834;50.870;4.606;2024-02-21T10:24:45;100850.06;;;7.78;59.41
68822;BME280;55834;50.870;4.606;2024-02-21T10:27:11;100835.34;;;8.23;58.33
68822;BME280;55834;50.870;4.606;2024-02-21T10:29:37;100842.78;;;7.95;59.17
68822;BME280;55834;50.870;4.606;2024-02-21T10:32:13;100839.59;;;7.13;60.97
68822;BME280;55834;50.870;4.606;2024-02-21T10:34:40;100821.19;;;7.75;60.15
68822;BME280;55834;50.870;4.606;2024-02-21T10:37:08;100816.59;;;7.29;59.87
68822;BME280;55834;50.870;4.606;2024-02-21T10:39:37;100811.63;;;7.71;58.73
68822;BME280;55834;50.870;4.606;2024-02-21T10:42:03;100821.56;;;8.09;58.88
68822;BME280;55834;50.870;4.606;2024-02-21T10:44:29;100823.69;;;7.84;59.08
68822;BME280;55834;50.870;4.606;2024-02-21T10:46:58;100818.81;;;8.17;58.57
68822;BME280;55834;50.870;4.606;2024-02-21T10:49:26;100820.94;;;7.30;60.29
68822;BME280;55834;50.870;4.606;2024-02-21T10:52:01;100820.81;;;7.99;59.50
68822;BME280;55834;50.870;4.606;2024-02-21T10:54:42;100825.56;;;8.31;57.83
68822;BME280;55834;50.870;4.606;2024-02-21T10:57:10;100819.72;;;8.14;58.97
68822;BME280;55834;50.870;4.606;2024-02-21T10:59:39;100803.56;;;7.81;59.15
68822;BME280;55834;50.870;4.606;2024-02-21T11:02:05;100795.25;;;7.53;59.89
68822;BME280;55834;50.870;4.606;2024-02-21T11:04:32;100789.34;;;7.93;58.83
68822;BME280;55834;50.870;4.606;2024-02-21T11:07:02;100778.38;;;7.06;60.02
68822;BME280;55834;50.870;4.606;2024-02-21T11:09:32;100771.03;;;7.88;60.01
68822;BME280;55834;50.870;4.606;2024-02-21T11:11:58;100770.28;;;7.23;60.44
68822;BME280;55834;50.870;4.606;2024-02-21T11:14:26;100764.03;;;7.87;60.03
68822;BME280;55834;50.870;4.606;2024-02-21T11:16:52;100760.53;;;7.87;58.69
68822;BME280;55834;50.870;4.606;2024-02-21T11:19:21;100756.19;;;7.29;60.10
68822;BME280;55834;50.870;4.606;2024-02-21T11:21:47;100749.63;;;7.57;59.46
68822;BME280;55834;50.870;4.606;2024-02-21T11:24:13;100721.66;;;8.07;58.96
68822;BME280;55834;50.870;4.606;2024-02-21T11:26:40;100735.31;;;7.77;59.37
68822;BME280;55834;50.870;4.606;2024-02-21T11:29:08;100728.53;;;7.63;59.38
68822;BME280;55834;50.870;4.606;2024-02-21T11:31:42;100698.63;;;7.71;59.77
68822;BME280;55834;50.870;4.606;2024-02-21T11:34:11;100705.88;;;8.07;58.74
68822;BME280;55834;50.870;4.606;2024-02-21T11:36:47;100710.59;;;7.87;58.54
68822;BME280;55834;50.870;4.606;2024-02-21T11:39:25;100704.59;;;7.79;58.65
68822;BME280;55834;50.870;4.606;2024-02-21T11:42:07;100694.97;;;7.79;58.73
68822;BME280;55834;50.870;4.606;2024-02-21T11:44:36;100686.41;;;7.68;59.14
68822;BME280;55834;50.870;4.606;2024-02-21T11:47:08;100691.25;;;7.91;58.23
68822;BME280;55834;50.870;4.606;2024-02-21T11:49:37;100684.00;;;8.04;57.05
68822;BME280;55834;50.870;4.606;2024-02-21T11:52:04;100686.31;;;7.73;58.00
68822;BME280;55834;50.870;4.606;2024-02-21T11:54:32;100673.41;;;8.10;57.85
68822;BME280;55834;50.870;4.606;2024-02-21T11:56:59;100671.63;;;8.12;56.63
68822;BME280;55834;50.870;4.606;2024-02-21T11:59:25;100668.94;;;8.13;57.47
68822;BME280;55834;50.870;4.606;2024-02-21T12:01:50;100649.84;;;8.47;56.42
68822;BME280;55834;50.870;4.606;2024-02-21T12:04:20;100645.13;;;7.75;58.48
68822;BME280;55834;50.870;4.606;2024-02-21T12:06:46;100640.66;;;7.80;58.42
68822;BME280;55834;50.870;4.606;2024-02-21T12:09:17;100635.81;;;8.03;57.99
68822;BME280;55834;50.870;4.606;2024-02-21T12:11:44;100636.13;;;7.88;58.11
68822;BME280;55834;50.870;4.606;2024-02-21T12:14:09;100638.38;;;7.60;58.90
68822;BME280;55834;50.870;4.606;2024-02-21T12:16:35;100640.03;;;7.64;58.80
68822;BME280;55834;50.870;4.606;2024-02-21T12:19:02;100612.47;;;6.83;59.70
68822;BME280;55834;50.870;4.606;2024-02-21T12:21:32;100628.69;;;7.09;59.67
68822;BME280;55834;50.870;4.606;2024-02-21T12:23:58;100618.28;;;7.05;60.03
68822;BME280;55834;50.870;4.606;2024-02-21T12:26:24;100613.47;;;7.30;59.57
68822;BME280;55834;50.870;4.606;2024-02-21T12:28:49;100624.56;;;7.95;58.05
68822;BME280;55834;50.870;4.606;2024-02-21T12:31:15;100607.34;;;7.79;58.02
68822;BME280;55834;50.870;4.606;2024-02-21T12:33:42;100608.00;;;7.91;58.78
68822;BME280;55834;50.870;4.606;2024-02-21T12:36:07;100599.03;;;7.57;59.39
68822;BME280;55834;50.870;4.606;2024-02-21T12:38:34;100593.25;;;7.36;59.16
68822;BME280;55834;50.870;4.606;2024-02-21T12:40:59;100574.75;;;7.42;59.23
68822;BME280;55834;50.870;4.606;2024-02-21T12:43:26;100583.69;;;7.32;59.84
68822;BME280;55834;50.870;4.606;2024-02-21T12:45:52;100569.09;;;7.65;58.30
68822;BME280;55834;50.870;4.606;2024-02-21T12:48:17;100565.22;;;7.83;58.13
68822;BME280;55834;50.870;4.606;2024-02-21T12:50:49;100543.06;;;7.97;57.96
68822;BME280;55834;50.870;4.606;2024-02-21T12:53:19;100562.53;;;7.40;59.36
68822;BME280;55834;50.870;4.606;2024-02-21T12:55:47;100548.91;;;7.66;58.49
68822;BME280;55834;50.870;4.606;2024-02-21T12:58:14;100535.47;;;7.81;58.45